Time;durP1;ratioP1;P1;durP2;ratioP2;P2;SDS_P1;SDS_P2;PMS_P1;PMS_P2;Temp;Humidity;BMP_temperature;BMP_pressure;BME280_temperature;BME280_humidity;BME280_pressure;Samples;Min_cycle;Max_cycle;Signal;HPM_P1;HPM_P2
2023/09/06 00:00:08;;;;;;;3.60;2.92;;;21.30;99.90;;;;;;5049692;28;20119;-84
2023/09/06 00:02:34;;;;;;;4.53;3.00;;;21.30;99.90;;;;;;5020312;28;20020;-84
2023/09/06 00:04:59;;;;;;;4.25;2.72;;;21.20;99.90;;;;;;5035843;28;20115;-84
2023/09/06 00:07:25;;;;;;;4.97;2.70;;;21.20;99.90;;;;;;5055283;28;20426;-84
2023/09/06 00:09:51;;;;;;;3.15;2.72;;;21.10;99.90;;;;;;5035087;28;20051;-84
2023/09/06 00:12:17;;;;;;;4.13;2.63;;;21.10;99.90;;;;;;5034116;28;20055;-85
2023/09/06 00:14:42;;;;;;;5.57;2.90;;;21.10;99.90;;;;;;5059352;28;20021;-84
2023/09/06 00:17:09;;;;;;;3.67;2.40;;;21.00;99.90;;;;;;5059158;28;20043;-84
2023/09/06 00:19:35;;;;;;;3.70;2.60;;;21.00;99.90;;;;;;5059256;28;20024;-84
2023/09/06 00:22:02;;;;;;;3.38;2.70;;;20.90;99.90;;;;;;5042872;28;20024;-84
2023/09/06 00:24:28;;;;;;;3.15;2.58;;;20.90;99.90;;;;;;5076810;28;20016;-84
2023/09/06 00:26:54;;;;;;;3.55;2.50;;;20.90;99.90;;;;;;5043010;28;20033;-84
2023/09/06 00:29:21;;;;;;;3.25;2.65;;;20.90;99.90;;;;;;5025964;28;20024;-85
2023/09/06 00:31:46;;;;;;;4.70;2.90;;;20.90;99.90;;;;;;5059036;28;20052;-84
2023/09/06 00:34:14;;;;;;;3.60;2.75;;;20.90;99.90;;;;;;5059206;28;20036;-84
2023/09/06 00:36:40;;;;;;;2.40;2.13;;;20.80;99.90;;;;;;5037840;28;20029;-84
2023/09/06 00:39:06;;;;;;;4.03;2.72;;;20.80;99.90;;;;;;5039178;28;20079;-84
2023/09/06 00:41:32;;;;;;;4.28;2.85;;;20.80;99.90;;;;;;5030058;28;20097;-84
2023/09/06 00:43:57;;;;;;;3.08;2.58;;;20.80;99.90;;;;;;5025642;28;20449;-83
2023/09/06 00:46:23;;;;;;;4.85;3.28;;;20.80;99.90;;;;;;5041951;28;20024;-83
2023/09/06 00:48:50;;;;;;;3.17;2.75;;;20.80;99.90;;;;;;5058954;28;20059;-84
2023/09/06 00:51:17;;;;;;;3.45;2.70;;;20.70;99.90;;;;;;5025928;28;20021;-83
2023/09/06 00:53:43;;;;;;;3.20;2.60;;;20.70;99.90;;;;;;5076628;28;20103;-83
2023/09/06 00:56:09;;;;;;;4.20;2.40;;;20.70;99.90;;;;;;5058686;28;20443;-83
2023/09/06 00:58:36;;;;;;;3.75;2.60;;;20.70;99.90;;;;;;5076400;28;20032;-83
2023/09/06 01:01:05;;;;;;;4.75;3.00;;;20.70;99.90;;;;;;5076398;28;20025;-84
2023/09/06 01:03:32;;;;;;;5.23;2.73;;;20.70;99.90;;;;;;5038869;28;20067;-83
2023/09/06 01:06:01;;;;;;;3.78;2.72;;;20.60;99.90;;;;;;5051741;28;20505;-84
2023/09/06 01:08:35;;;;;;;4.03;2.45;;;20.60;99.90;;;;;;5066109;28;20516;-83
2023/09/06 01:11:21;;;;;;;5.28;2.90;;;20.60;99.90;;;;;;5058835;28;20069;-83
2023/09/06 01:13:51;;;;;;;4.30;2.63;;;20.50;99.90;;;;;;5026180;28;20043;-84
2023/09/06 01:16:22;;;;;;;3.30;2.57;;;20.50;99.90;;;;;;5059240;28;20503;-84
2023/09/06 01:18:48;;;;;;;3.70;2.83;;;20.50;99.90;;;;;;5083076;28;20263;-83
2023/09/06 01:21:17;;;;;;;4.55;2.65;;;20.40;99.90;;;;;;5082590;28;20031;-84
2023/09/06 01:23:43;;;;;;;2.92;2.60;;;20.40;99.90;;;;;;5062252;28;20077;-83
2023/09/06 01:26:09;;;;;;;3.65;2.28;;;20.30;99.90;;;;;;5083570;28;20017;-83
2023/09/06 01:28:35;;;;;;;3.17;2.40;;;20.30;99.90;;;;;;5056927;28;20032;-84
2023/09/06 01:31:01;;;;;;;5.80;3.38;;;20.30;99.90;;;;;;5039279;28;20071;-84
2023/09/06 01:33:28;;;;;;;3.00;2.38;;;20.20;99.90;;;;;;5021944;28;20049;-84
2023/09/06 01:35:54;;;;;;;3.35;2.63;;;20.10;99.90;;;;;;5022099;28;20032;-83
2023/09/06 01:38:20;;;;;;;3.53;2.38;;;20.20;99.90;;;;;;5042108;28;20024;-83
2023/09/06 01:40:46;;;;;;;3.97;2.92;;;20.10;99.90;;;;;;5057606;28;20031;-84
2023/09/06 01:43:13;;;;;;;3.95;2.72;;;20.10;99.90;;;;;;5021566;28;20021;-84
2023/09/06 01:45:48;;;;;;;4.55;3.03;;;20.00;99.90;;;;;;5037592;28;20013;-84
2023/09/06 01:48:13;;;;;;;4.05;2.83;;;20.00;99.90;;;;;;5042214;28;20457;-83
2023/09/06 01:50:39;;;;;;;4.82;2.45;;;20.00;99.90;;;;;;5048843;28;20025;-84
2023/09/06 01:53:05;;;;;;;3.72;2.60;;;20.00;99.90;;;;;;5020906;28;20403;-83
2023/09/06 01:55:30;;;;;;;2.97;2.60;;;20.00;99.90;;;;;;5037348;28;20063;-83
2023/09/06 01:57:56;;;;;;;4.03;3.05;;;20.00;99.90;;;;;;5021042;28;20040;-84
2023/09/06 02:00:23;;;;;;;4.68;2.83;;;20.00;99.90;;;;;;5055378;28;20453;-83
2023/09/06 02:02:50;;;;;;;4.05;2.70;;;20.00;99.90;;;;;;5020776;28;20029;-84
2023/09/06 02:05:16;;;;;;;3.80;3.03;;;19.90;99.90;;;;;;5037555;28;20096;-84
2023/09/06 02:07:42;;;;;;;4.45;2.92;;;19.90;99.90;;;;;;5020670;28;20175;-84
2023/09/06 02:10:08;;;;;;;4.55;3.03;;;19.90;99.90;;;;;;5021051;28;20017;-83
2023/09/06 02:12:34;;;;;;;4.32;2.97;;;19.90;99.90;;;;;;5037062;28;20021;-84
2023/09/06 02:15:00;;;;;;;5.30;2.80;;;19.80;99.90;;;;;;5057319;28;20477;-83
2023/09/06 02:17:26;;;;;;;5.18;2.80;;;19.80;99.90;;;;;;5045771;28;20495;-84
2023/09/06 02:19:52;;;;;;;4.18;2.70;;;19.70;99.90;;;;;;5026773;28;20027;-83
2023/09/06 02:22:18;;;;;;;3.30;2.83;;;19.80;99.90;;;;;;5027582;28;20024;-83
2023/09/06 02:24:44;;;;;;;3.72;2.97;;;19.70;99.90;;;;;;5040089;28;20074;-84
2023/09/06 02:27:12;;;;;;;3.35;2.83;;;19.70;99.90;;;;;;5014816;28;20103;-83
2023/09/06 02:29:37;;;;;;;3.83;2.63;;;19.70;99.90;;;;;;5027799;28;20025;-84
2023/09/06 02:32:03;;;;;;;5.40;2.83;;;19.60;99.90;;;;;;5048373;28;20037;-83
2023/09/06 02:34:29;;;;;;;5.15;2.78;;;19.60;99.90;;;;;;5020980;28;20432;-84
2023/09/06 02:36:56;;;;;;;2.83;2.58;;;19.50;99.90;;;;;;5047803;28;20083;-84
2023/09/06 02:39:22;;;;;;;3.60;2.70;;;19.60;99.90;;;;;;5047735;28;20116;-84
2023/09/06 02:41:48;;;;;;;3.90;2.80;;;19.50;99.90;;;;;;5033729;28;20025;-84
2023/09/06 02:44:14;;;;;;;3.67;2.70;;;19.50;99.90;;;;;;5024657;28;20036;-84
2023/09/06 02:46:40;;;;;;;3.45;3.15;;;19.50;99.90;;;;;;5033549;28;20040;-84
2023/09/06 02:49:12;;;;;;;6.75;3.40;;;19.40;99.90;;;;;;5052830;28;20021;-84
2023/09/06 02:51:43;;;;;;;4.40;2.60;;;19.40;99.90;;;;;;5052412;28;20036;-84
2023/09/06 02:54:09;;;;;;;4.32;2.65;;;19.40;99.90;;;;;;5042402;28;20046;-84
2023/09/06 02:56:37;;;;;;;3.75;3.00;;;19.30;99.90;;;;;;5053876;28;20021;-83
2023/09/06 02:59:07;;;;;;;4.38;3.08;;;19.30;99.90;;;;;;5026447;28;20053;-84
2023/09/06 03:01:38;;;;;;;3.63;3.20;;;19.30;99.90;;;;;;5033530;28;20018;-84
2023/09/06 03:04:06;;;;;;;;;;;19.30;99.90;;;;;;5033859;28;20461;-84
2023/09/06 03:06:33;;;;;;;3.95;2.70;;;19.20;99.90;;;;;;5017465;28;20371;-84
2023/09/06 03:08:59;;;;;;;3.88;3.22;;;19.20;99.90;;;;;;5017341;28;20021;-84
2023/09/06 03:11:26;;;;;;;4.78;3.40;;;19.20;99.90;;;;;;5043289;28;20006;-83
2023/09/06 03:13:55;;;;;;;4.00;2.70;;;19.20;99.90;;;;;;5050777;28;20085;-85
2023/09/06 03:16:24;;;;;;;4.78;3.28;;;19.10;99.90;;;;;;5041582;28;20025;-82
2023/09/06 03:18:51;;;;;;;4.95;3.42;;;19.10;99.90;;;;;;5061526;28;20013;-81
2023/09/06 03:21:17;;;;;;;4.38;3.10;;;19.10;99.90;;;;;;5077457;28;20088;-82
2023/09/06 03:23:46;;;;;;;3.58;3.10;;;19.10;99.90;;;;;;5055128;28;20037;-84
2023/09/06 03:26:12;;;;;;;3.63;3.03;;;19.10;99.90;;;;;;5033517;28;20485;-84
2023/09/06 03:28:40;;;;;;;3.80;3.38;;;19.10;99.90;;;;;;5032534;28;20018;-84
2023/09/06 03:31:09;;;;;;;4.00;3.08;;;19.10;99.90;;;;;;5046643;28;20056;-84
2023/09/06 03:33:39;;;;;;;3.95;3.03;;;19.00;99.90;;;;;;5051986;28;20094;-84
2023/09/06 03:36:09;;;;;;;4.18;3.45;;;19.00;99.90;;;;;;5053637;28;20396;-84
2023/09/06 03:38:36;;;;;;;3.93;3.07;;;19.10;99.90;;;;;;5053473;28;20384;-84
2023/09/06 03:41:02;;;;;;;4.25;2.95;;;19.10;99.90;;;;;;5051267;28;20139;-84
2023/09/06 03:43:32;;;;;;;4.50;3.05;;;19.00;99.90;;;;;;5053595;28;20021;-83
2023/09/06 03:45:58;;;;;;;3.03;2.70;;;19.10;99.90;;;;;;5035959;28;20025;-84
2023/09/06 03:48:27;;;;;;;5.70;3.45;;;19.00;99.90;;;;;;5052343;28;20173;-84
2023/09/06 03:51:00;;;;;;;4.13;3.20;;;19.10;99.90;;;;;;5033868;28;20108;-84
2023/09/06 03:53:26;;;;;;;3.20;2.67;;;19.10;99.90;;;;;;5032323;28;20028;-84
2023/09/06 03:55:52;;;;;;;3.63;2.95;;;19.00;99.90;;;;;;5035304;28;20041;-84
2023/09/06 03:58:18;;;;;;;5.43;3.45;;;19.10;99.90;;;;;;5053221;28;20033;-84
2023/09/06 04:00:44;;;;;;;4.43;3.05;;;19.10;99.90;;;;;;5052812;28;20032;-84
2023/09/06 04:03:11;;;;;;;3.95;3.22;;;19.00;99.90;;;;;;5040328;28;20485;-84
2023/09/06 04:05:37;;;;;;;3.60;3.08;;;19.00;99.90;;;;;;5032324;28;20144;-84
2023/09/06 04:08:09;;;;;;;3.45;2.95;;;19.00;99.90;;;;;;5044000;28;20472;-84
2023/09/06 04:10:36;;;;;;;4.40;2.80;;;19.00;99.90;;;;;;5053259;28;20021;-84
2023/09/06 04:13:09;;;;;;;3.85;2.83;;;19.00;99.90;;;;;;5051736;28;20112;-84
2023/09/06 04:15:36;;;;;;;5.40;3.53;;;19.00;99.90;;;;;;5051970;28;20021;-84
2023/09/06 04:18:07;;;;;;;4.20;3.30;;;18.90;99.90;;;;;;5044196;28;20038;-84
2023/09/06 04:20:36;;;;;;;4.40;3.22;;;18.90;99.90;;;;;;5031825;28;20030;-84
2023/09/06 04:23:06;;;;;;;6.70;3.60;;;18.90;99.90;;;;;;5023431;28;20026;-84
2023/09/06 04:25:34;;;;;;;3.83;3.25;;;18.90;99.90;;;;;;5038653;28;20071;-83
2023/09/06 04:28:07;;;;;;;4.22;3.38;;;18.90;99.90;;;;;;5037675;28;20361;-84
2023/09/06 04:30:36;;;;;;;4.18;3.03;;;18.90;99.90;;;;;;5031985;28;20063;-84
2023/09/06 04:33:05;;;;;;;4.68;3.63;;;18.80;99.90;;;;;;5046704;28;20040;-84
2023/09/06 04:35:45;;;;;;;4.65;3.42;;;18.80;99.90;;;;;;5053067;28;20101;-84
2023/09/06 04:38:12;;;;;;;4.68;3.15;;;18.80;99.90;;;;;;5051537;28;20021;-84
2023/09/06 04:40:38;;;;;;;3.90;3.20;;;18.70;99.90;;;;;;5018988;28;20070;-84
2023/09/06 04:43:07;;;;;;;4.00;3.28;;;18.80;99.90;;;;;;5051469;28;20464;-84
2023/09/06 04:45:37;;;;;;;4.50;3.08;;;18.70;99.90;;;;;;5041285;28;20071;-83
2023/09/06 04:48:03;;;;;;;4.25;3.08;;;18.70;99.90;;;;;;5038505;28;20473;-82
2023/09/06 04:50:29;;;;;;;4.35;3.55;;;18.70;99.90;;;;;;5040703;28;20029;-83
2023/09/06 04:52:56;;;;;;;5.07;3.65;;;18.70;99.90;;;;;;5024072;28;20366;-83
2023/09/06 04:55:23;;;;;;;5.68;3.70;;;18.70;99.90;;;;;;5023286;28;20596;-83
2023/09/06 04:57:54;;;;;;;4.90;3.88;;;18.70;99.90;;;;;;5040827;28;20037;-83
2023/09/06 05:00:30;;;;;;;5.07;3.80;;;18.70;99.90;;;;;;5070900;28;20021;-83
2023/09/06 05:02:57;;;;;;;4.97;3.80;;;18.70;99.90;;;;;;5053443;28;20024;-83
2023/09/06 05:05:24;;;;;;;5.32;4.00;;;18.60;99.90;;;;;;5077889;28;20035;-83
2023/09/06 05:07:50;;;;;;;4.60;3.38;;;18.70;99.90;;;;;;5064673;28;20024;-82
2023/09/06 05:10:16;;;;;;;5.35;3.72;;;18.60;99.90;;;;;;5053258;28;20040;-81
2023/09/06 05:12:42;;;;;;;5.20;3.78;;;18.60;99.90;;;;;;5062805;28;20012;-83
2023/09/06 05:15:08;;;;;;;5.43;4.03;;;18.60;99.90;;;;;;5057187;28;20357;-83
2023/09/06 05:17:35;;;;;;;5.20;4.32;;;18.60;99.90;;;;;;5055669;28;20037;-83
2023/09/06 05:20:27;;;;;;;4.00;3.58;;;18.60;99.90;;;;;;5038588;28;20024;-83
2023/09/06 05:22:57;;;;;;;7.90;4.18;;;18.60;99.90;;;;;;5055008;28;20017;-83
2023/09/06 05:25:23;;;;;;;4.43;3.70;;;18.60;99.90;;;;;;5055024;28;20013;-83
2023/09/06 05:27:50;;;;;;;5.75;4.35;;;18.60;99.90;;;;;;5047222;28;20029;-83
2023/09/06 05:30:16;;;;;;;6.28;4.45;;;18.50;99.90;;;;;;5054258;28;20029;-83
2023/09/06 05:32:42;;;;;;;5.63;4.22;;;18.50;99.90;;;;;;5057551;28;20120;-83
2023/09/06 05:35:08;;;;;;;5.70;4.38;;;18.50;99.90;;;;;;5075429;28;20460;-83
2023/09/06 05:37:34;;;;;;;6.43;4.47;;;18.50;99.90;;;;;;5028948;28;20025;-83
2023/09/06 05:40:00;;;;;;;5.53;3.95;;;18.50;99.90;;;;;;5037576;28;20074;-83
2023/09/06 05:42:25;;;;;;;4.45;3.88;;;18.50;99.90;;;;;;5055616;28;20369;-83
2023/09/06 05:44:51;;;;;;;5.55;4.45;;;18.50;99.90;;;;;;5021404;28;20376;-83
2023/09/06 05:47:17;;;;;;;5.07;4.05;;;18.60;99.90;;;;;;5020851;28;20047;-83
2023/09/06 05:49:42;;;;;;;5.28;4.78;;;18.60;99.90;;;;;;5037991;28;20021;-83
2023/09/06 05:52:08;;;;;;;6.90;4.40;;;18.60;99.90;;;;;;5004713;28;20020;-83
2023/09/06 05:54:34;;;;;;;7.10;4.30;;;18.60;99.90;;;;;;5021254;28;20025;-83
2023/09/06 05:56:59;;;;;;;6.72;4.22;;;18.60;99.90;;;;;;5035196;28;20032;-83
2023/09/06 05:59:26;;;;;;;6.65;4.38;;;18.70;99.90;;;;;;5041311;28;20013;-83
2023/09/06 06:01:51;;;;;;;7.07;4.38;;;18.70;99.90;;;;;;5024498;28;20526;-83
2023/09/06 06:04:17;;;;;;;6.70;4.75;;;18.70;99.90;;;;;;5056561;28;20033;-83
2023/09/06 06:06:43;;;;;;;5.03;3.85;;;18.70;99.90;;;;;;5057561;28;20020;-83
2023/09/06 06:09:11;;;;;;;3.97;3.55;;;18.80;99.90;;;;;;5040587;28;20028;-83
2023/09/06 06:11:38;;;;;;;6.38;3.75;;;18.80;99.90;;;;;;5022964;28;20025;-83
2023/09/06 06:14:04;;;;;;;5.22;3.63;;;18.90;99.90;;;;;;5043135;28;20021;-83
2023/09/06 06:16:30;;;;;;;4.38;3.70;;;18.90;99.90;;;;;;5054974;28;20477;-83
2023/09/06 06:18:56;;;;;;;5.20;4.00;;;19.00;99.90;;;;;;5021689;28;20032;-83
2023/09/06 06:21:27;;;;;;;4.93;3.58;;;19.00;99.90;;;;;;5056525;28;20024;-84
2023/09/06 06:23:54;;;;;;;4.75;3.72;;;19.00;99.90;;;;;;5041383;28;20165;-84
2023/09/06 06:26:20;;;;;;;6.28;3.60;;;19.10;99.90;;;;;;5039004;28;20472;-84
2023/09/06 06:28:46;;;;;;;5.03;3.80;;;19.10;99.90;;;;;;5037011;28;20452;-84
2023/09/06 06:31:12;;;;;;;5.20;3.97;;;19.20;99.90;;;;;;5020329;28;20036;-83
2023/09/06 06:33:38;;;;;;;6.10;3.70;;;19.20;99.90;;;;;;5039758;28;20048;-84
2023/09/06 06:36:05;;;;;;;4.90;3.67;;;19.20;99.90;;;;;;5049650;28;20025;-83
2023/09/06 06:38:31;;;;;;;4.07;3.20;;;19.30;99.90;;;;;;5064914;28;20449;-83
2023/09/06 06:40:57;;;;;;;4.43;3.55;;;19.40;99.90;;;;;;5047984;28;20025;-83
2023/09/06 06:43:22;;;;;;;3.47;3.17;;;19.40;99.90;;;;;;5054024;28;20078;-84
2023/09/06 06:45:58;;;;;;;4.95;3.47;;;19.40;99.90;;;;;;5057124;28;20570;-84
2023/09/06 06:48:23;;;;;;;3.38;3.08;;;19.40;99.90;;;;;;5054753;28;20067;-83
2023/09/06 06:50:49;;;;;;;3.75;3.38;;;19.50;99.90;;;;;;5051815;28;20052;-83
2023/09/06 06:53:15;;;;;;;4.97;3.80;;;19.60;99.90;;;;;;5057372;28;20452;-83
2023/09/06 06:55:41;;;;;;;3.50;3.20;;;19.60;99.90;;;;;;5044839;28;20070;-83
2023/09/06 06:58:10;;;;;;;6.47;3.83;;;19.70;99.90;;;;;;5081376;28;20028;-83
2023/09/06 07:00:35;;;;;;;6.35;3.33;;;19.70;99.90;;;;;;5082153;28;20008;-83
2023/09/06 07:03:01;;;;;;;5.50;3.13;;;19.80;99.90;;;;;;5063330;28;20028;-82
2023/09/06 07:05:27;;;;;;;4.20;3.28;;;19.80;99.90;;;;;;5079813;28;20024;-83
2023/09/06 07:07:54;;;;;;;4.65;2.65;;;19.90;99.90;;;;;;5031492;28;20083;-83
2023/09/06 07:10:21;;;;;;;3.63;2.90;;;19.90;99.90;;;;;;5048285;28;20036;-83
2023/09/06 07:12:48;;;;;;;4.68;3.47;;;20.00;99.90;;;;;;5004410;28;20167;-83
2023/09/06 07:15:14;;;;;;;5.95;3.65;;;20.10;99.90;;;;;;5053826;28;20154;-83
2023/09/06 07:17:40;;;;;;;4.57;3.08;;;20.20;99.90;;;;;;5019831;28;20041;-83
2023/09/06 07:20:07;;;;;;;3.80;2.80;;;20.20;99.90;;;;;;5035933;28;20052;-83
2023/09/06 07:22:33;;;;;;;2.88;2.45;;;20.20;99.90;;;;;;5035893;28;20447;-83
2023/09/06 07:24:58;;;;;;;4.32;3.30;;;20.30;99.90;;;;;;5035644;28;20120;-83
2023/09/06 07:27:25;;;;;;;4.15;3.00;;;20.40;99.90;;;;;;5035723;28;20021;-83
2023/09/06 07:29:51;;;;;;;3.20;2.45;;;20.50;99.90;;;;;;5019272;28;20071;-83
2023/09/06 07:32:16;;;;;;;5.88;2.90;;;20.60;99.90;;;;;;5035570;28;20017;-83
2023/09/06 07:34:43;;;;;;;4.65;2.80;;;20.60;99.90;;;;;;5035527;28;20477;-83
2023/09/06 07:37:10;;;;;;;4.28;2.63;;;20.70;99.90;;;;;;5049081;28;20029;-82
2023/09/06 07:39:35;;;;;;;3.38;2.50;;;20.80;99.90;;;;;;5020972;28;20021;-83
2023/09/06 07:42:03;;;;;;;2.78;2.55;;;20.80;99.90;;;;;;5019267;28;20372;-84
2023/09/06 07:44:32;;;;;;;4.25;2.78;;;20.90;99.90;;;;;;5035001;28;20028;-83
2023/09/06 07:46:59;;;;;;;3.00;2.70;;;21.00;99.90;;;;;;5003158;28;20029;-83
2023/09/06 07:49:26;;;;;;;3.33;2.60;;;21.00;99.90;;;;;;5018931;28;20032;-84
2023/09/06 07:51:51;;;;;;;3.45;2.80;;;21.10;99.90;;;;;;5035391;28;20029;-84
2023/09/06 07:54:18;;;;;;;3.97;2.70;;;21.20;99.90;;;;;;5035259;28;20028;-83
2023/09/06 07:56:47;;;;;;;3.08;2.45;;;21.30;99.90;;;;;;5071187;28;20075;-83
2023/09/06 07:59:13;;;;;;;4.43;2.47;;;21.30;99.90;;;;;;5055176;28;20047;-83
2023/09/06 08:01:38;;;;;;;3.35;2.60;;;21.40;99.90;;;;;;5055083;28;20468;-84
2023/09/06 08:04:04;;;;;;;5.07;2.50;;;21.50;99.90;;;;;;5032260;28;20017;-84
2023/09/06 08:06:30;;;;;;;2.40;2.17;;;21.60;99.90;;;;;;5029140;28;20416;-83
2023/09/06 08:08:55;;;;;;;2.78;2.30;;;21.60;99.90;;;;;;5060359;28;20025;-83
2023/09/06 08:11:21;;;;;;;3.10;2.33;;;21.70;99.90;;;;;;5055118;28;20059;-83
2023/09/06 08:13:47;;;;;;;3.15;2.25;;;21.80;99.90;;;;;;5020816;28;20043;-84
2023/09/06 08:16:12;;;;;;;3.17;2.63;;;21.90;99.90;;;;;;5055248;28;20033;-83
2023/09/06 08:18:38;;;;;;;4.18;2.65;;;21.90;99.90;;;;;;5003874;28;20376;-83
2023/09/06 08:21:03;;;;;;;3.85;2.30;;;22.00;99.90;;;;;;5038321;28;20101;-83
2023/09/06 08:23:30;;;;;;;5.32;2.40;;;22.10;99.90;;;;;;5038532;28;20142;-84
2023/09/06 08:25:56;;;;;;;2.50;2.30;;;22.20;99.90;;;;;;5038709;28;20456;-83
2023/09/06 08:28:21;;;;;;;2.50;2.30;;;22.30;99.90;;;;;;5075305;28;20125;-83
2023/09/06 08:30:47;;;;;;;4.13;2.50;;;22.30;99.90;;;;;;5026481;28;20115;-83
2023/09/06 08:33:14;;;;;;;5.20;2.75;;;22.40;99.90;;;;;;5039923;28;20041;-83
2023/09/06 08:35:39;;;;;;;3.65;2.45;;;22.50;99.90;;;;;;5058705;28;20017;-83
2023/09/06 08:38:05;;;;;;;9.30;2.83;;;22.50;99.90;;;;;;5025068;28;20037;-84
2023/09/06 08:40:31;;;;;;;6.22;3.15;;;22.60;99.90;;;;;;5042407;28;20457;-84
2023/09/06 08:43:02;;;;;;;2.53;2.33;;;22.70;99.90;;;;;;5042611;28;20479;-84
2023/09/06 08:45:29;;;;;;;2.90;2.50;;;22.80;99.90;;;;;;5059318;28;20109;-83
2023/09/06 08:47:55;;;;;;;3.58;2.53;;;22.80;99.90;;;;;;5039224;28;20123;-84
2023/09/06 08:50:21;;;;;;;3.58;2.25;;;22.90;99.90;;;;;;5051230;28;20031;-83
2023/09/06 08:52:50;;;;;;;4.13;2.28;;;23.00;99.90;;;;;;5031869;28;20024;-83
2023/09/06 08:55:17;;;;;;;3.42;2.40;;;23.00;99.90;;;;;;5040368;28;20013;-83
2023/09/06 08:57:44;;;;;;;2.83;2.30;;;23.10;99.90;;;;;;5078606;28;20025;-83
2023/09/06 09:00:11;;;;;;;2.55;2.25;;;23.10;99.90;;;;;;5081283;28;20036;-83
2023/09/06 09:02:42;;;;;;;4.07;2.60;;;23.20;99.90;;;;;;5063341;28;20018;-81
2023/09/06 09:05:10;;;;;;;2.92;2.30;;;23.30;99.90;;;;;;5062444;28;20013;-82
2023/09/06 09:07:36;;;;;;;3.97;2.08;;;23.40;99.90;;;;;;5078836;28;20106;-83
2023/09/06 09:10:11;;;;;;;2.72;2.25;;;23.40;99.90;;;;;;5078120;28;20028;-83
2023/09/06 09:12:38;;;;;;;4.97;2.70;;;23.50;99.90;;;;;;5076458;28;20032;-84
2023/09/06 09:15:05;;;;;;;3.90;2.55;;;23.60;99.90;;;;;;5050234;28;20526;-84
2023/09/06 09:17:31;;;;;;;3.15;2.80;;;23.60;99.90;;;;;;5067558;28;20453;-83
2023/09/06 09:19:59;;;;;;;3.78;2.40;;;23.70;99.90;;;;;;5056246;28;20096;-83
2023/09/06 09:22:30;;;;;;;6.15;2.55;;;23.80;99.80;;;;;;5021459;28;20045;-83
2023/09/06 09:25:16;;;;;;;3.45;2.30;;;23.90;99.80;;;;;;5022413;28;20404;-83
2023/09/06 09:27:45;;;;;;;3.15;2.60;;;23.90;99.70;;;;;;5076102;28;20423;-83
2023/09/06 09:30:12;;;;;;;5.55;2.35;;;24.00;99.70;;;;;;5041373;28;20031;-83
2023/09/06 09:32:41;;;;;;;2.63;2.35;;;24.00;99.70;;;;;;5057251;28;20012;-83
2023/09/06 09:35:11;;;;;;;5.57;2.35;;;24.10;99.80;;;;;;5057369;28;20044;-84
2023/09/06 09:37:42;;;;;;;3.17;2.05;;;24.10;99.70;;;;;;5057682;28;20123;-83
2023/09/06 09:40:32;;;;;;;3.15;2.55;;;24.20;99.60;;;;;;5062841;28;20021;-83
2023/09/06 09:43:00;;;;;;;2.50;1.88;;;24.30;99.60;;;;;;5057806;28;20032;-84
2023/09/06 09:45:30;;;;;;;3.20;2.30;;;24.30;99.50;;;;;;5027489;28;20025;-83
2023/09/06 09:47:59;;;;;;;3.55;2.58;;;24.40;99.30;;;;;;5021644;28;20025;-83
2023/09/06 09:50:28;;;;;;;3.00;1.92;;;24.40;99.30;;;;;;5073024;28;20349;-84
2023/09/06 09:52:55;;;;;;;3.47;2.50;;;24.50;99.10;;;;;;5021124;28;20017;-83
2023/09/06 09:55:27;;;;;;;2.83;2.42;;;24.50;99.00;;;;;;5037711;28;20455;-83
2023/09/06 09:57:54;;;;;;;4.72;2.42;;;24.60;98.70;;;;;;5040548;28;20119;-83
2023/09/06 10:00:27;;;;;;;3.22;2.20;;;24.70;98.50;;;;;;5075155;28;20521;-83
2023/09/06 10:02:56;;;;;;;2.70;2.00;;;24.80;98.50;;;;;;5057840;28;20024;-84
2023/09/06 10:05:23;;;;;;;3.10;2.40;;;24.80;98.40;;;;;;5057324;28;20024;-84
2023/09/06 10:07:49;;;;;;;4.97;2.53;;;24.90;98.40;;;;;;5056929;28;20027;-83
2023/09/06 10:10:17;;;;;;;2.90;2.30;;;24.90;98.10;;;;;;5056922;28;20025;-84
2023/09/06 10:12:45;;;;;;;3.28;2.47;;;25.00;98.00;;;;;;5056882;28;20440;-83
2023/09/06 10:15:19;;;;;;;2.35;1.80;;;25.10;98.00;;;;;;5040065;28;20024;-84
2023/09/06 10:17:47;;;;;;;3.28;2.28;;;25.10;98.00;;;;;;5074851;28;20071;-83
2023/09/06 10:20:16;;;;;;;3.58;2.60;;;25.10;97.90;;;;;;5056961;28;20116;-83
2023/09/06 10:22:44;;;;;;;3.10;2.42;;;25.20;98.00;;;;;;5056641;28;20044;-83
2023/09/06 10:25:10;;;;;;;2.88;2.25;;;25.30;97.90;;;;;;5056930;28;20356;-83
2023/09/06 10:27:50;;;;;;;2.88;2.30;;;25.30;97.90;;;;;;5056616;28;20024;-85
2023/09/06 10:30:20;;;;;;;3.10;2.58;;;25.30;97.80;;;;;;5057258;28;20028;-85
2023/09/06 10:32:47;;;;;;;6.95;2.90;;;25.40;97.70;;;;;;5056632;28;20024;-83
2023/09/06 10:35:22;;;;;;;3.53;2.72;;;25.40;97.60;;;;;;5056431;28;20048;-83
2023/09/06 10:38:02;;;;;;;4.03;2.72;;;25.50;97.50;;;;;;5053154;28;20356;-84
2023/09/06 10:40:53;;;;;;;3.00;2.42;;;25.60;97.40;;;;;;5037438;28;20032;-83
2023/09/06 10:43:23;;;;;;;3.42;2.50;;;25.60;97.00;;;;;;5041647;28;20602;-83
2023/09/06 10:46:18;;;;;;;4.22;2.72;;;25.60;96.90;;;;;;5041918;28;20013;-83
2023/09/06 10:49:20;;;;;;;4.18;2.20;;;25.70;96.80;;;;;;5070067;28;20029;-83
2023/09/06 10:52:03;;;;;;;3.08;2.30;;;25.80;96.50;;;;;;5039135;28;20029;-84
2023/09/06 10:54:40;;;;;;;4.75;3.00;;;25.80;96.20;;;;;;5050288;28;20475;-84
2023/09/06 10:57:08;;;;;;;4.85;3.00;;;25.90;95.90;;;;;;5066710;28;20067;-83
2023/09/06 10:59:44;;;;;;;6.18;2.75;;;26.00;96.00;;;;;;5071403;28;20032;-84
2023/09/06 11:02:16;;;;;;;4.32;3.03;;;26.00;96.10;;;;;;5085294;28;20008;-83
2023/09/06 11:04:43;;;;;;;4.28;2.53;;;26.00;95.70;;;;;;5056672;28;20031;-83
2023/09/06 11:07:11;;;;;;;4.38;2.95;;;26.10;95.20;;;;;;5034780;28;20051;-81
2023/09/06 11:09:45;;;;;;;3.83;2.67;;;26.10;95.00;;;;;;5070632;28;20149;-84
2023/09/06 11:12:12;;;;;;;3.90;2.80;;;26.10;94.90;;;;;;5046302;28;20025;-83
2023/09/06 11:14:38;;;;;;;3.92;3.00;;;26.20;94.50;;;;;;5054165;28;20013;-85
2023/09/06 11:17:03;;;;;;;3.70;2.70;;;26.20;94.60;;;;;;5014240;28;20033;-84
2023/09/06 11:19:30;;;;;;;3.88;2.90;;;26.20;94.50;;;;;;5003408;28;20032;-83
2023/09/06 11:22:09;;;;;;;3.35;2.33;;;26.30;94.40;;;;;;5019596;28;20399;-83
2023/09/06 11:24:36;;;;;;;5.00;2.80;;;26.30;94.10;;;;;;5035922;28;20032;-83
2023/09/06 11:27:16;;;;;;;5.70;2.88;;;26.40;93.70;;;;;;5035785;28;20271;-83
2023/09/06 11:29:43;;;;;;;2.83;2.30;;;26.40;93.60;;;;;;5053527;28;20020;-83
2023/09/06 11:32:15;;;;;;;3.35;2.42;;;26.40;93.70;;;;;;5034049;28;20040;-83
2023/09/06 11:34:45;;;;;;;4.15;2.40;;;26.50;93.80;;;;;;5035496;28;20049;-83
2023/09/06 11:37:14;;;;;;;3.17;2.40;;;26.50;93.80;;;;;;5035911;28;20130;-83
2023/09/06 11:39:41;;;;;;;3.67;2.47;;;26.60;93.70;;;;;;5019296;28;20404;-83
2023/09/06 11:42:16;;;;;;;3.40;2.35;;;26.60;93.70;;;;;;5055081;28;20346;-83
2023/09/06 11:44:53;;;;;;;3.58;2.25;;;26.60;93.40;;;;;;5065212;28;20020;-84
2023/09/06 11:47:20;;;;;;;4.53;2.47;;;26.70;93.30;;;;;;5040369;28;20090;-83
2023/09/06 11:49:47;;;;;;;3.08;2.25;;;26.70;93.10;;;;;;5052834;28;20024;-83
2023/09/06 11:52:18;;;;;;;8.27;2.90;;;26.70;92.70;;;;;;5035683;28;20031;-83
2023/09/06 11:54:47;;;;;;;5.28;2.53;;;26.80;92.30;;;;;;5035264;28;20021;-83
2023/09/06 11:57:23;;;;;;;3.92;2.60;;;26.90;92.50;;;;;;5052049;28;20032;-83
2023/09/06 11:59:53;;;;;;;4.15;2.90;;;26.80;92.60;;;;;;5035320;28;20425;-83
2023/09/06 12:02:21;;;;;;;3.72;2.63;;;26.90;92.50;;;;;;5052851;28;20044;-83
2023/09/06 12:05:01;;;;;;;4.30;2.80;;;27.00;92.00;;;;;;5018807;28;20064;-83
2023/09/06 12:07:31;;;;;;;4.18;2.47;;;27.00;91.70;;;;;;5053273;28;20036;-84
2023/09/06 12:09:58;;;;;;;6.50;2.90;;;27.00;91.80;;;;;;5019428;28;20449;-83
2023/09/06 12:12:27;;;;;;;4.45;2.90;;;27.00;91.80;;;;;;5035467;28;20090;-83
2023/09/06 12:14:53;;;;;;;4.00;2.80;;;27.10;91.90;;;;;;5031690;28;20035;-83
2023/09/06 12:17:19;;;;;;;4.15;2.67;;;27.10;91.70;;;;;;5055372;28;20030;-83
2023/09/06 12:19:45;;;;;;;3.22;2.67;;;27.20;91.70;;;;;;5038234;28;20037;-83
2023/09/06 12:22:17;;;;;;;4.25;2.70;;;27.20;91.50;;;;;;5055069;28;20178;-83
2023/09/06 12:24:46;;;;;;;4.70;2.80;;;27.30;91.40;;;;;;5055969;28;20368;-83
2023/09/06 12:27:15;;;;;;;4.38;2.75;;;27.30;91.50;;;;;;5039162;28;20033;-83
2023/09/06 12:29:42;;;;;;;4.07;2.70;;;27.30;91.60;;;;;;5055301;28;20017;-83
2023/09/06 12:32:08;;;;;;;4.70;2.55;;;27.40;91.80;;;;;;5072916;28;20025;-83
2023/09/06 12:34:33;;;;;;;3.25;2.58;;;27.40;91.80;;;;;;5054803;28;20071;-83
2023/09/06 12:36:59;;;;;;;3.75;2.80;;;27.40;91.90;;;;;;5054871;28;20086;-83
2023/09/06 12:39:25;;;;;;;3.78;2.42;;;27.40;91.30;;;;;;5053674;28;20060;-84
2023/09/06 12:41:50;;;;;;;2.97;2.35;;;27.50;91.40;;;;;;5040501;28;20033;-84
2023/09/06 12:44:16;;;;;;;3.92;2.50;;;27.50;91.40;;;;;;5019713;28;20465;-83
2023/09/06 12:46:42;;;;;;;4.30;2.50;;;27.50;91.40;;;;;;5035406;28;20108;-83
2023/09/06 12:49:07;;;;;;;7.47;2.90;;;27.50;91.40;;;;;;5035337;28;20028;-83
2023/09/06 12:51:33;;;;;;;5.22;2.60;;;27.60;91.30;;;;;;5018847;28;20426;-83